Orogrande, New Mexico
Current Conditions -  °F | °C
As of 6:56 AM on Monday 26 Jan 2015 (Local Time) from KM63 Reporting Station
Clear Clear  
Wind Chill: 26°   Ceiling: Unl
Heat Index: 34°   Visibility: 10mi
Dew Point: 23°   Wind: 9mph
Humidity: 66%   Direction: 300°WNW
Pressure: 30.3"   Gusts: NA
Location:  32.39°N, 106.09°W
Report Text: KM63 261356Z AUTO 30008KT 10SM CLR 01/M05 A3030 RMK AO2 SLP245 T00091048
Loading
Personal Weather Stations






























Interactive Weather Map New forecast layout! Learn more

10-Day Weather Forecast

Advertisements
Track Severe Weather on mobile